sensor_id;sensor_type;location;lat;lon;timestamp;pressure;altitude;pressure_sealevel;temperature;humidity
43814;BME280;29669;55.706;37.656;2023-01-27T00:00:47;100275.72;;;-0.06;nan
43814;BME280;29669;55.706;37.656;2023-01-27T00:03:21;100268.81;;;-0.04;nan
43814;BME280;29669;55.706;37.656;2023-01-27T00:05:49;100267.81;;;-0.01;nan
43814;BME280;29669;55.706;37.656;2023-01-27T00:08:16;100269.63;;;-0.03;nan
43814;BME280;29669;55.706;37.656;2023-01-27T00:10:48;100269.97;;;-0.09;nan
43814;BME280;29669;55.706;37.656;2023-01-27T00:16:02;100279.19;;;-0.22;nan
43814;BME280;29669;55.706;37.656;2023-01-27T00:18:30;100274.19;;;-0.24;nan
43814;BME280;29669;55.706;37.656;2023-01-27T00:20:58;100269.72;;;-0.20;nan
43814;BME280;29669;55.706;37.656;2023-01-27T00:23:43;100288.84;;;-0.27;nan
43814;BME280;29669;55.706;37.656;2023-01-27T00:26:36;100286.50;;;-0.32;nan
43814;BME280;29669;55.706;37.656;2023-01-27T00:29:06;100274.69;;;-0.33;nan
43814;BME280;29669;55.706;37.656;2023-01-27T00:31:33;100272.69;;;-0.28;nan
43814;BME280;29669;55.706;37.656;2023-01-27T00:34:20;100273.44;;;-0.26;nan
43814;BME280;29669;55.706;37.656;2023-01-27T00:36:47;100270.06;;;-0.26;nan
43814;BME280;29669;55.706;37.656;2023-01-27T00:39:15;100274.19;;;-0.24;nan
43814;BME280;29669;55.706;37.656;2023-01-27T00:41:42;100264.16;;;-0.27;nan
43814;BME280;29669;55.706;37.656;2023-01-27T00:44:10;100276.72;;;-0.24;nan
43814;BME280;29669;55.706;37.656;2023-01-27T00:46:42;100268.50;;;-0.29;nan
43814;BME280;29669;55.706;37.656;2023-01-27T00:49:10;100268.34;;;-0.26;nan
43814;BME280;29669;55.706;37.656;2023-01-27T00:51:40;100270.16;;;-0.28;nan
43814;BME280;29669;55.706;37.656;2023-01-27T00:54:13;100258.47;;;-0.32;nan
43814;BME280;29669;55.706;37.656;2023-01-27T00:56:45;100255.34;;;-0.37;nan
43814;BME280;29669;55.706;37.656;2023-01-27T00:59:13;100249.00;;;-0.45;nan
43814;BME280;29669;55.706;37.656;2023-01-27T01:01:41;100259.28;;;-0.47;nan
43814;BME280;29669;55.706;37.656;2023-01-27T01:04:08;100263.56;;;-0.47;nan
43814;BME280;29669;55.706;37.656;2023-01-27T01:06:36;100258.44;;;-0.47;nan
43814;BME280;29669;55.706;37.656;2023-01-27T01:09:04;100250.22;;;-0.52;nan
43814;BME280;29669;55.706;37.656;2023-01-27T01:11:31;100243.00;;;-0.60;nan
43814;BME280;29669;55.706;37.656;2023-01-27T01:13:59;100240.72;;;-0.64;nan
43814;BME280;29669;55.706;37.656;2023-01-27T01:16:26;100249.91;;;-0.62;nan
43814;BME280;29669;55.706;37.656;2023-01-27T01:18:54;100239.78;;;-0.63;nan
43814;BME280;29669;55.706;37.656;2023-01-27T01:21:22;100255.00;;;-0.62;nan
43814;BME280;29669;55.706;37.656;2023-01-27T01:26:16;100255.81;;;-0.61;nan
43814;BME280;29669;55.706;37.656;2023-01-27T01:28:44;100259.22;;;-0.61;nan
43814;BME280;29669;55.706;37.656;2023-01-27T01:31:17;100250.56;;;-0.58;nan
43814;BME280;29669;55.706;37.656;2023-01-27T01:33:47;100253.94;;;-0.58;nan
43814;BME280;29669;55.706;37.656;2023-01-27T01:36:20;100250.91;;;-0.64;nan
43814;BME280;29669;55.706;37.656;2023-01-27T01:41:17;100246.13;;;-0.70;nan
43814;BME280;29669;55.706;37.656;2023-01-27T01:43:49;100241.16;;;-0.73;nan
43814;BME280;29669;55.706;37.656;2023-01-27T01:46:20;100245.47;;;-0.74;nan
43814;BME280;29669;55.706;37.656;2023-01-27T01:48:57;100245.94;;;-0.67;nan
43814;BME280;29669;55.706;37.656;2023-01-27T01:54:04;100244.03;;;-0.79;nan
43814;BME280;29669;55.706;37.656;2023-01-27T01:59:31;100249.03;;;-0.93;nan
43814;BME280;29669;55.706;37.656;2023-01-27T02:02:07;100236.69;;;-1.01;nan
43814;BME280;29669;55.706;37.656;2023-01-27T02:04:46;100250.25;;;-1.01;nan
43814;BME280;29669;55.706;37.656;2023-01-27T02:09:59;100230.41;;;-1.11;nan
43814;BME280;29669;55.706;37.656;2023-01-27T02:12:30;100239.53;;;-1.07;nan
43814;BME280;29669;55.706;37.656;2023-01-27T02:14:58;100240.28;;;-1.05;nan
43814;BME280;29669;55.706;37.656;2023-01-27T02:17:34;100235.94;;;-1.03;nan
43814;BME280;29669;55.706;37.656;2023-01-27T02:20:10;100238.50;;;-1.03;nan
43814;BME280;29669;55.706;37.656;2023-01-27T02:28:02;100225.84;;;-1.05;nan
43814;BME280;29669;55.706;37.656;2023-01-27T02:30:30;100223.13;;;-1.02;nan
43814;BME280;29669;55.706;37.656;2023-01-27T02:32:58;100228.31;;;-1.03;nan
43814;BME280;29669;55.706;37.656;2023-01-27T02:35:32;100219.44;;;-0.96;nan
43814;BME280;29669;55.706;37.656;2023-01-27T02:38:07;100229.47;;;-0.93;nan
43814;BME280;29669;55.706;37.656;2023-01-27T02:40:36;100224.31;;;-0.91;nan
43814;BME280;29669;55.706;37.656;2023-01-27T02:45:33;100215.81;;;-0.92;nan
43814;BME280;29669;55.706;37.656;2023-01-27T02:48:01;100205.81;;;-0.95;nan
43814;BME280;29669;55.706;37.656;2023-01-27T02:50:32;100216.00;;;-0.95;nan
43814;BME280;29669;55.706;37.656;2023-01-27T02:55:27;100222.63;;;-0.93;nan
43814;BME280;29669;55.706;37.656;2023-01-27T02:57:55;100217.53;;;-0.93;nan
43814;BME280;29669;55.706;37.656;2023-01-27T03:00:40;100214.25;;;-0.95;nan
43814;BME280;29669;55.706;37.656;2023-01-27T03:05:38;100203.50;;;-0.84;nan
43814;BME280;29669;55.706;37.656;2023-01-27T03:10:34;100213.41;;;-0.78;nan
43814;BME280;29669;55.706;37.656;2023-01-27T03:13:04;100206.13;;;-0.70;nan
43814;BME280;29669;55.706;37.656;2023-01-27T03:15:31;100210.59;;;-0.73;nan
43814;BME280;29669;55.706;37.656;2023-01-27T03:18:17;100227.03;;;-0.79;nan
43814;BME280;29669;55.706;37.656;2023-01-27T03:20:46;100230.63;;;-0.83;nan
43814;BME280;29669;55.706;37.656;2023-01-27T03:23:17;100226.03;;;-0.92;nan
43814;BME280;29669;55.706;37.656;2023-01-27T03:25:49;100226.84;;;-0.91;nan
43814;BME280;29669;55.706;37.656;2023-01-27T03:28:16;100228.75;;;-0.95;nan
43814;BME280;29669;55.706;37.656;2023-01-27T03:31:04;100229.78;;;-0.99;nan
43814;BME280;29669;55.706;37.656;2023-01-27T03:33:46;100212.28;;;-1.05;nan
43814;BME280;29669;55.706;37.656;2023-01-27T03:36:29;100214.06;;;-1.07;nan
43814;BME280;29669;55.706;37.656;2023-01-27T03:39:16;100215.88;;;-1.09;nan
43814;BME280;29669;55.706;37.656;2023-01-27T03:42:04;100219.91;;;-1.05;nan
43814;BME280;29669;55.706;37.656;2023-01-27T03:44:50;100219.16;;;-1.07;nan
43814;BME280;29669;55.706;37.656;2023-01-27T03:47:37;100219.38;;;-1.12;nan
43814;BME280;29669;55.706;37.656;2023-01-27T03:50:07;100220.97;;;-1.09;nan
43814;BME280;29669;55.706;37.656;2023-01-27T03:52:40;100215.78;;;-1.08;nan
43814;BME280;29669;55.706;37.656;2023-01-27T03:55:10;100221.88;;;-1.10;nan
43814;BME280;29669;55.706;37.656;2023-01-27T03:57:38;100224.25;;;-1.07;nan
43814;BME280;29669;55.706;37.656;2023-01-27T04:00:07;100224.84;;;-1.02;nan
43814;BME280;29669;55.706;37.656;2023-01-27T04:02:39;100233.41;;;-1.03;nan
43814;BME280;29669;55.706;37.656;2023-01-27T04:05:30;100234.00;;;-1.15;nan
43814;BME280;29669;55.706;37.656;2023-01-27T04:08:17;100229.09;;;-1.18;nan
43814;BME280;29669;55.706;37.656;2023-01-27T04:10:50;100230.31;;;-1.10;nan
43814;BME280;29669;55.706;37.656;2023-01-27T04:13:39;100243.41;;;-1.16;nan
43814;BME280;29669;55.706;37.656;2023-01-27T04:16:09;100233.34;;;-1.19;nan
43814;BME280;29669;55.706;37.656;2023-01-27T04:18:40;100235.81;;;-1.17;nan
43814;BME280;29669;55.706;37.656;2023-01-27T04:21:07;100238.44;;;-1.19;nan
43814;BME280;29669;55.706;37.656;2023-01-27T04:23:37;100235.00;;;-1.18;nan
43814;BME280;29669;55.706;37.656;2023-01-27T04:28:35;100235.69;;;-1.14;nan
43814;BME280;29669;55.706;37.656;2023-01-27T04:33:45;100246.59;;;-1.12;nan
43814;BME280;29669;55.706;37.656;2023-01-27T04:38:43;100243.97;;;-1.11;nan
43814;BME280;29669;55.706;37.656;2023-01-27T04:41:14;100242.56;;;-1.16;nan
43814;BME280;29669;55.706;37.656;2023-01-27T04:43:42;100250.03;;;-1.13;nan
43814;BME280;29669;55.706;37.656;2023-01-27T04:46:09;100239.94;;;-1.15;nan
43814;BME280;29669;55.706;37.656;2023-01-27T04:51:08;100240.03;;;-1.16;nan
43814;BME280;29669;55.706;37.656;2023-01-27T04:53:36;100244.19;;;-1.15;nan
43814;BME280;29669;55.706;37.656;2023-01-27T04:56:10;100252.75;;;-1.16;nan
43814;BME280;29669;55.706;37.656;2023-01-27T04:58:41;100256.19;;;-1.17;nan
43814;BME280;29669;55.706;37.656;2023-01-27T05:01:12;100251.84;;;-1.15;nan
43814;BME280;29669;55.706;37.656;2023-01-27T05:03:40;100249.38;;;-1.17;nan
43814;BME280;29669;55.706;37.656;2023-01-27T05:06:15;100250.69;;;-1.10;nan
43814;BME280;29669;55.706;37.656;2023-01-27T05:08:43;100248.91;;;-1.08;nan
43814;BME280;29669;55.706;37.656;2023-01-27T05:11:11;100255.56;;;-1.05;nan
43814;BME280;29669;55.706;37.656;2023-01-27T05:13:39;100250.47;;;-1.05;nan
43814;BME280;29669;55.706;37.656;2023-01-27T05:18:39;100267.25;;;-1.01;nan
43814;BME280;29669;55.706;37.656;2023-01-27T05:21:11;100255.28;;;-0.99;nan
43814;BME280;29669;55.706;37.656;2023-01-27T05:23:40;100250.47;;;-1.05;nan
43814;BME280;29669;55.706;37.656;2023-01-27T05:28:36;100264.78;;;-1.03;nan
43814;BME280;29669;55.706;37.656;2023-01-27T05:31:26;100268.97;;;-1.02;nan
43814;BME280;29669;55.706;37.656;2023-01-27T05:33:55;100272.66;;;-1.07;nan
43814;BME280;29669;55.706;37.656;2023-01-27T05:36:36;100272.00;;;-1.11;nan
43814;BME280;29669;55.706;37.656;2023-01-27T05:39:04;100270.84;;;-1.05;nan
43814;BME280;29669;55.706;37.656;2023-01-27T05:41:35;100278.50;;;-1.05;nan
43814;BME280;29669;55.706;37.656;2023-01-27T05:44:04;100275.78;;;-1.02;nan
43814;BME280;29669;55.706;37.656;2023-01-27T05:46:31;100283.28;;;-0.99;nan
43814;BME280;29669;55.706;37.656;2023-01-27T05:49:11;100282.31;;;-0.97;nan
43814;BME280;29669;55.706;37.656;2023-01-27T05:51:46;100283.72;;;-0.91;nan
43814;BME280;29669;55.706;37.656;2023-01-27T05:54:16;100285.59;;;-0.95;nan
43814;BME280;29669;55.706;37.656;2023-01-27T05:56:48;100284.19;;;-1.00;nan
43814;BME280;29669;55.706;37.656;2023-01-27T05:59:22;100290.28;;;-1.03;nan
43814;BME280;29669;55.706;37.656;2023-01-27T06:04:20;100282.84;;;-1.07;nan
43814;BME280;29669;55.706;37.656;2023-01-27T06:09:17;100289.81;;;-0.93;nan
43814;BME280;29669;55.706;37.656;2023-01-27T06:14:13;100283.97;;;-0.96;nan
43814;BME280;29669;55.706;37.656;2023-01-27T06:16:41;100293.97;;;-0.93;nan
43814;BME280;29669;55.706;37.656;2023-01-27T06:24:04;100299.78;;;-1.06;nan
43814;BME280;29669;55.706;37.656;2023-01-27T06:26:31;100299.94;;;-1.09;nan
43814;BME280;29669;55.706;37.656;2023-01-27T06:29:00;100301.72;;;-1.11;nan
43814;BME280;29669;55.706;37.656;2023-01-27T06:31:30;100299.25;;;-1.13;nan
43814;BME280;29669;55.706;37.656;2023-01-27T06:34:03;100293.22;;;-1.10;nan
43814;BME280;29669;55.706;37.656;2023-01-27T06:36:33;100291.06;;;-1.02;nan
43814;BME280;29669;55.706;37.656;2023-01-27T06:39:03;100293.41;;;-0.98;nan
43814;BME280;29669;55.706;37.656;2023-01-27T06:41:39;100299.91;;;-0.92;nan
43814;BME280;29669;55.706;37.656;2023-01-27T06:44:07;100289.97;;;-0.81;nan
43814;BME280;29669;55.706;37.656;2023-01-27T06:46:40;100295.81;;;-0.79;nan
43814;BME280;29669;55.706;37.656;2023-01-27T06:49:28;100289.25;;;-0.83;nan
43814;BME280;29669;55.706;37.656;2023-01-27T06:51:56;100300.47;;;-0.87;nan
43814;BME280;29669;55.706;37.656;2023-01-27T06:54:26;100302.16;;;-0.86;nan
43814;BME280;29669;55.706;37.656;2023-01-27T06:59:20;100303.38;;;-0.77;nan
43814;BME280;29669;55.706;37.656;2023-01-27T07:01:56;100295.75;;;-0.77;nan
43814;BME280;29669;55.706;37.656;2023-01-27T07:04:37;100310.72;;;-0.71;nan
43814;BME280;29669;55.706;37.656;2023-01-27T07:07:07;100296.25;;;-0.71;nan
43814;BME280;29669;55.706;37.656;2023-01-27T07:09:35;100307.88;;;-0.65;nan
43814;BME280;29669;55.706;37.656;2023-01-27T07:12:20;100308.63;;;-0.63;nan
43814;BME280;29669;55.706;37.656;2023-01-27T07:14:48;100310.09;;;-0.59;nan
43814;BME280;29669;55.706;37.656;2023-01-27T07:17:16;100311.69;;;-0.57;nan
43814;BME280;29669;55.706;37.656;2023-01-27T07:19:43;100304.91;;;-0.58;nan
43814;BME280;29669;55.706;37.656;2023-01-27T07:22:11;100316.59;;;-0.54;nan
43814;BME280;29669;55.706;37.656;2023-01-27T07:29:32;100316.38;;;-0.34;nan
43814;BME280;29669;55.706;37.656;2023-01-27T07:32:00;100322.53;;;-0.38;nan
43814;BME280;29669;55.706;37.656;2023-01-27T07:34:29;100322.22;;;-0.32;nan
43814;BME280;29669;55.706;37.656;2023-01-27T07:36:59;100320.28;;;-0.27;nan
43814;BME280;29669;55.706;37.656;2023-01-27T07:39:26;100319.88;;;-0.19;nan
43814;BME280;29669;55.706;37.656;2023-01-27T07:42:15;100314.75;;;-0.19;nan
43814;BME280;29669;55.706;37.656;2023-01-27T07:44:52;100319.53;;;-0.29;nan
43814;BME280;29669;55.706;37.656;2023-01-27T07:47:19;100333.34;;;-0.33;nan
43814;BME280;29669;55.706;37.656;2023-01-27T07:49:50;100328.25;;;-0.33;nan
43814;BME280;29669;55.706;37.656;2023-01-27T07:52:20;100335.72;;;-0.30;nan
43814;BME280;29669;55.706;37.656;2023-01-27T07:54:49;100337.94;;;-0.24;nan
43814;BME280;29669;55.706;37.656;2023-01-27T07:57:17;100341.91;;;-0.18;nan
43814;BME280;29669;55.706;37.656;2023-01-27T07:59:44;100335.09;;;-0.18;nan
43814;BME280;29669;55.706;37.656;2023-01-27T08:02:14;100337.38;;;-0.13;nan
43814;BME280;29669;55.706;37.656;2023-01-27T08:07:19;100340.84;;;-0.14;nan
43814;BME280;29669;55.706;37.656;2023-01-27T08:09:47;100337.69;;;-0.04;nan
43814;BME280;29669;55.706;37.656;2023-01-27T08:12:15;100334.81;;;0.03;nan
43814;BME280;29669;55.706;37.656;2023-01-27T08:14:42;100341.50;;;0.05;nan
43814;BME280;29669;55.706;37.656;2023-01-27T08:17:09;100334.81;;;0.03;nan
43814;BME280;29669;55.706;37.656;2023-01-27T08:19:37;100335.75;;;0.02;nan
43814;BME280;29669;55.706;37.656;2023-01-27T08:22:12;100337.69;;;-0.04;nan
43814;BME280;29669;55.706;37.656;2023-01-27T08:24:49;100342.81;;;-0.04;nan
43814;BME280;29669;55.706;37.656;2023-01-27T08:32:21;100353.28;;;0.08;nan
43814;BME280;29669;55.706;37.656;2023-01-27T08:34:52;100347.50;;;0.20;nan
43814;BME280;29669;55.706;37.656;2023-01-27T08:37:23;100347.00;;;0.29;nan
43814;BME280;29669;55.706;37.656;2023-01-27T08:39:58;100346.31;;;0.41;nan
43814;BME280;29669;55.706;37.656;2023-01-27T08:42:27;100349.63;;;0.43;nan
43814;BME280;29669;55.706;37.656;2023-01-27T08:44:54;100337.31;;;0.49;nan
43814;BME280;29669;55.706;37.656;2023-01-27T08:47:21;100326.50;;;0.60;nan
43814;BME280;29669;55.706;37.656;2023-01-27T08:49:52;100332.28;;;0.63;nan
43814;BME280;29669;55.706;37.656;2023-01-27T08:52:24;100335.50;;;0.51;nan
43814;BME280;29669;55.706;37.656;2023-01-27T08:57:34;100342.47;;;0.34;nan
43814;BME280;29669;55.706;37.656;2023-01-27T09:00:13;100337.09;;;0.38;nan
43814;BME280;29669;55.706;37.656;2023-01-27T09:05:19;100348.16;;;0.68;nan
43814;BME280;29669;55.706;37.656;2023-01-27T09:07:50;100337.00;;;0.85;nan
43814;BME280;29669;55.706;37.656;2023-01-27T09:10:17;100348.28;;;0.81;nan
43814;BME280;29669;55.706;37.656;2023-01-27T09:12:47;100338.22;;;0.78;nan
43814;BME280;29669;55.706;37.656;2023-01-27T09:17:47;100336.25;;;0.83;nan
43814;BME280;29669;55.706;37.656;2023-01-27T09:20:14;100337.16;;;0.82;nan
43814;BME280;29669;55.706;37.656;2023-01-27T09:22:42;100348.28;;;0.81;nan
43814;BME280;29669;55.706;37.656;2023-01-27T09:25:14;100343.44;;;0.76;nan
43814;BME280;29669;55.706;37.656;2023-01-27T09:27:43;100341.72;;;0.77;nan
43814;BME280;29669;55.706;37.656;2023-01-27T09:32:42;100338.22;;;0.78;nan
43814;BME280;29669;55.706;37.656;2023-01-27T09:35:12;100334.78;;;0.79;nan
43814;BME280;29669;55.706;37.656;2023-01-27T09:40:34;100351.25;;;1.03;nan
43814;BME280;29669;55.706;37.656;2023-01-27T09:43:27;100341.38;;;0.97;nan
43814;BME280;29669;55.706;37.656;2023-01-27T10:11:56;100344.63;;;1.15;nan
43814;BME280;29669;55.706;37.656;2023-01-27T10:14:34;100339.06;;;1.22;nan
43814;BME280;29669;55.706;37.656;2023-01-27T10:20:32;100335.13;;;1.17;nan
43814;BME280;29669;55.706;37.656;2023-01-27T10:26:29;100332.03;;;1.26;nan
43814;BME280;29669;55.706;37.656;2023-01-27T10:29:23;100330.66;;;1.34;nan
43814;BME280;29669;55.706;37.656;2023-01-27T10:35:17;100330.94;;;1.44;nan
43814;BME280;29669;55.706;37.656;2023-01-27T10:46:35;100347.25;;;1.13;nan
43814;BME280;29669;55.706;37.656;2023-01-27T10:49:21;100345.59;;;1.12;nan
43814;BME280;29669;55.706;37.656;2023-01-27T10:54:37;100349.72;;;1.15;nan
43814;BME280;29669;55.706;37.656;2023-01-27T11:06:09;100363.94;;;0.90;nan
43814;BME280;29669;55.706;37.656;2023-01-27T11:08:40;100363.84;;;0.92;nan
43814;BME280;29669;55.706;37.656;2023-01-27T11:11:14;100355.25;;;0.93;nan
43814;BME280;29669;55.706;37.656;2023-01-27T11:17:16;100365.25;;;0.82;nan
43814;BME280;29669;55.706;37.656;2023-01-27T11:25:55;100347.72;;;0.76;nan
43814;BME280;29669;55.706;37.656;2023-01-27T11:34:45;100363.66;;;0.65;nan
43814;BME280;29669;55.706;37.656;2023-01-27T11:37:19;100362.72;;;0.66;nan
43814;BME280;29669;55.706;37.656;2023-01-27T11:39:47;100358.06;;;0.59;nan
43814;BME280;29669;55.706;37.656;2023-01-27T11:42:15;100355.59;;;0.57;nan
43814;BME280;29669;55.706;37.656;2023-01-27T11:44:44;100356.59;;;0.55;nan
43814;BME280;29669;55.706;37.656;2023-01-27T11:47:22;100357.91;;;0.62;nan
43814;BME280;29669;55.706;37.656;2023-01-27T11:49:52;100359.38;;;0.66;nan
43814;BME280;29669;55.706;37.656;2023-01-27T11:52:31;100351.72;;;0.66;nan
43814;BME280;29669;55.706;37.656;2023-01-27T11:57:49;100369.19;;;0.58;nan
43814;BME280;29669;55.706;37.656;2023-01-27T12:00:24;100358.34;;;0.54;nan
43814;BME280;29669;55.706;37.656;2023-01-27T12:03:31;100367.38;;;0.60;nan
43814;BME280;29669;55.706;37.656;2023-01-27T12:08:55;100379.22;;;0.61;nan
43814;BME280;29669;55.706;37.656;2023-01-27T12:11:27;100376.78;;;0.59;nan
43814;BME280;29669;55.706;37.656;2023-01-27T12:16:45;100366.63;;;0.58;nan
43814;BME280;29669;55.706;37.656;2023-01-27T12:19:27;100377.75;;;0.57;nan
43814;BME280;29669;55.706;37.656;2023-01-27T12:22:01;100378.50;;;0.59;nan
43814;BME280;29669;55.706;37.656;2023-01-27T12:24:35;100370.78;;;0.60;nan
43814;BME280;29669;55.706;37.656;2023-01-27T12:27:25;100369.00;;;0.61;nan
43814;BME280;29669;55.706;37.656;2023-01-27T12:30:03;100374.53;;;0.69;nan
43814;BME280;29669;55.706;37.656;2023-01-27T12:32:48;100367.50;;;0.72;nan
43814;BME280;29669;55.706;37.656;2023-01-27T12:38:26;100381.13;;;0.73;nan
43814;BME280;29669;55.706;37.656;2023-01-27T12:41:11;100389.41;;;0.76;nan
43814;BME280;29669;55.706;37.656;2023-01-27T12:44:08;100384.16;;;0.79;nan
43814;BME280;29669;55.706;37.656;2023-01-27T12:46:55;100381.50;;;0.81;nan
43814;BME280;29669;55.706;37.656;2023-01-27T12:49:35;100390.66;;;0.85;nan
43814;BME280;29669;55.706;37.656;2023-01-27T12:52:05;100388.25;;;0.82;nan
43814;BME280;29669;55.706;37.656;2023-01-27T12:54:36;100391.25;;;0.74;nan
43814;BME280;29669;55.706;37.656;2023-01-27T12:57:09;100407.59;;;0.72;nan
43814;BME280;29669;55.706;37.656;2023-01-27T12:59:48;100396.44;;;0.73;nan
43814;BME280;29669;55.706;37.656;2023-01-27T13:02:22;100400.72;;;0.72;nan
43814;BME280;29669;55.706;37.656;2023-01-27T13:07:27;100405.72;;;0.74;nan
43814;BME280;29669;55.706;37.656;2023-01-27T13:10:02;100393.16;;;0.71;nan
43814;BME280;29669;55.706;37.656;2023-01-27T13:12:50;100395.38;;;0.77;nan
43814;BME280;29669;55.706;37.656;2023-01-27T13:15:28;100390.34;;;0.75;nan
43814;BME280;29669;55.706;37.656;2023-01-27T13:20:49;100395.91;;;0.82;nan
43814;BME280;29669;55.706;37.656;2023-01-27T13:31:57;100405.28;;;0.67;nan
43814;BME280;29669;55.706;37.656;2023-01-27T13:34:47;100410.38;;;0.67;nan
43814;BME280;29669;55.706;37.656;2023-01-27T13:37:32;100413.91;;;0.65;nan
43814;BME280;29669;55.706;37.656;2023-01-27T13:40:16;100418.13;;;0.66;nan
43814;BME280;29669;55.706;37.656;2023-01-27T13:42:55;100420.94;;;0.61;nan
43814;BME280;29669;55.706;37.656;2023-01-27T13:45:38;100419.34;;;0.59;nan
43814;BME280;29669;55.706;37.656;2023-01-27T13:53:17;100410.72;;;0.46;nan
43814;BME280;29669;55.706;37.656;2023-01-27T14:15:19;100440.72;;;0.42;nan
43814;BME280;29669;55.706;37.656;2023-01-27T14:18:18;100428.97;;;0.40;nan
43814;BME280;29669;55.706;37.656;2023-01-27T14:26:42;100448.88;;;0.49;nan
43814;BME280;29669;55.706;37.656;2023-01-27T14:32:11;100456.88;;;0.43;nan
43814;BME280;29669;55.706;37.656;2023-01-27T14:40:26;100464.00;;;0.36;nan
43814;BME280;29669;55.706;37.656;2023-01-27T14:45:53;100453.06;;;0.34;nan
43814;BME280;29669;55.706;37.656;2023-01-27T14:48:38;100468.06;;;0.40;nan
43814;BME280;29669;55.706;37.656;2023-01-27T14:56:55;100482.88;;;0.49;nan
43814;BME280;29669;55.706;37.656;2023-01-27T14:59:34;100477.06;;;0.47;nan
43814;BME280;29669;55.706;37.656;2023-01-27T15:10:28;100480.59;;;0.45;nan
43814;BME280;29669;55.706;37.656;2023-01-27T15:24:50;100484.53;;;0.35;nan
43814;BME280;29669;55.706;37.656;2023-01-27T15:27:13;100486.34;;;0.33;nan
43814;BME280;29669;55.706;37.656;2023-01-27T15:29:42;100489.81;;;0.32;nan
43814;BME280;29669;55.706;37.656;2023-01-27T15:34:51;100485.34;;;0.35;nan
43814;BME280;29669;55.706;37.656;2023-01-27T15:37:21;100490.38;;;0.37;nan
43814;BME280;29669;55.706;37.656;2023-01-27T15:45:36;100495.00;;;0.46;nan
43814;BME280;29669;55.706;37.656;2023-01-27T15:48:14;100485.59;;;0.46;nan
43814;BME280;29669;55.706;37.656;2023-01-27T15:51:01;100489.00;;;0.47;nan
43814;BME280;29669;55.706;37.656;2023-01-27T15:53:38;100501.50;;;0.51;nan
43814;BME280;29669;55.706;37.656;2023-01-27T15:56:11;100498.38;;;0.46;nan
43814;BME280;29669;55.706;37.656;2023-01-27T15:58:55;100505.06;;;0.49;nan
43814;BME280;29669;55.706;37.656;2023-01-27T16:01:28;100508.59;;;0.46;nan
43814;BME280;29669;55.706;37.656;2023-01-27T16:04:14;100501.50;;;0.51;nan
43814;BME280;29669;55.706;37.656;2023-01-27T16:06:46;100499.69;;;0.53;nan
43814;BME280;29669;55.706;37.656;2023-01-27T16:12:01;100499.53;;;0.56;nan
43814;BME280;29669;55.706;37.656;2023-01-27T16:19:44;100505.13;;;0.32;nan
43814;BME280;29669;55.706;37.656;2023-01-27T16:22:16;100512.13;;;0.28;nan
43814;BME280;29669;55.706;37.656;2023-01-27T16:30:31;100506.41;;;0.23;nan
43814;BME280;29669;55.706;37.656;2023-01-27T16:33:15;100508.00;;;0.26;nan
43814;BME280;29669;55.706;37.656;2023-01-27T16:38:50;100515.81;;;0.23;nan
43814;BME280;29669;55.706;37.656;2023-01-27T16:41:27;100518.28;;;0.24;nan
43814;BME280;29669;55.706;37.656;2023-01-27T16:44:05;100525.88;;;0.26;nan
43814;BME280;29669;55.706;37.656;2023-01-27T16:51:57;100529.16;;;0.28;nan
43814;BME280;29669;55.706;37.656;2023-01-27T16:54:33;100531.72;;;0.28;nan
43814;BME280;29669;55.706;37.656;2023-01-27T16:57:03;100528.25;;;0.29;nan
43814;BME280;29669;55.706;37.656;2023-01-27T17:02:21;100521.19;;;0.34;nan
43814;BME280;29669;55.706;37.656;2023-01-27T17:04:54;100527.34;;;0.30;nan
43814;BME280;29669;55.706;37.656;2023-01-27T17:07:22;100529.00;;;0.31;nan
43814;BME280;29669;55.706;37.656;2023-01-27T17:14:57;100526.22;;;0.35;nan
43814;BME280;29669;55.706;37.656;2023-01-27T17:20:04;100517.72;;;0.35;nan
43814;BME280;29669;55.706;37.656;2023-01-27T17:22:36;100531.31;;;0.35;nan
43814;BME280;29669;55.706;37.656;2023-01-27T17:25:20;100533.78;;;0.37;nan
43814;BME280;29669;55.706;37.656;2023-01-27T17:27:52;100522.00;;;0.34;nan
43814;BME280;29669;55.706;37.656;2023-01-27T17:30:24;100526.31;;;0.34;nan
43814;BME280;29669;55.706;37.656;2023-01-27T17:33:00;100522.41;;;0.27;nan
43814;BME280;29669;55.706;37.656;2023-01-27T17:40:42;100536.91;;;0.26;nan
43814;BME280;29669;55.706;37.656;2023-01-27T17:46:15;100541.94;;;0.28;nan
43814;BME280;29669;55.706;37.656;2023-01-27T17:48:50;100541.75;;;0.31;nan
43814;BME280;29669;55.706;37.656;2023-01-27T17:51:24;100540.63;;;0.36;nan
43814;BME280;29669;55.706;37.656;2023-01-27T17:53:53;100542.94;;;0.41;nan
43814;BME280;29669;55.706;37.656;2023-01-27T17:56:26;100534.34;;;0.42;nan
43814;BME280;29669;55.706;37.656;2023-01-27T17:59:03;100532.63;;;0.42;nan
43814;BME280;29669;55.706;37.656;2023-01-27T18:01:40;100542.19;;;0.39;nan
43814;BME280;29669;55.706;37.656;2023-01-27T18:04:09;100536.91;;;0.42;nan
43814;BME280;29669;55.706;37.656;2023-01-27T18:06:39;100540.31;;;0.42;nan
43814;BME280;29669;55.706;37.656;2023-01-27T18:09:24;100548.78;;;0.43;nan
43814;BME280;29669;55.706;37.656;2023-01-27T18:11:57;100549.09;;;0.37;nan
43814;BME280;29669;55.706;37.656;2023-01-27T18:14:24;100552.56;;;0.36;nan
43814;BME280;29669;55.706;37.656;2023-01-27T18:17:00;100546.47;;;0.38;nan
43814;BME280;29669;55.706;37.656;2023-01-27T18:19:31;100555.94;;;0.36;nan
43814;BME280;29669;55.706;37.656;2023-01-27T18:22:10;100553.06;;;0.42;nan
43814;BME280;29669;55.706;37.656;2023-01-27T18:30:17;100559.66;;;0.46;nan
43814;BME280;29669;55.706;37.656;2023-01-27T18:33:01;100561.78;;;0.38;nan
43814;BME280;29669;55.706;37.656;2023-01-27T18:35:34;100552.63;;;0.34;nan
43814;BME280;29669;55.706;37.656;2023-01-27T18:38:23;100558.50;;;0.36;nan
43814;BME280;29669;55.706;37.656;2023-01-27T18:41:06;100554.53;;;0.31;nan
43814;BME280;29669;55.706;37.656;2023-01-27T18:43:34;100558.09;;;0.28;nan